Time;durP1;ratioP1;P1;durP2;ratioP2;P2;SDS_P1;SDS_P2;PMS_P1;PMS_P2;Temp;Humidity;BMP_temperature;BMP_pressure;BME280_temperature;BME280_humidity;BME280_pressure;Samples;Min_cycle;Max_cycle;Signal;HPM_P1;HPM_P2
2023/11/10 00:02:08;;;;;;;6.03;2.47;;;9.10;88.40;;;;;;9163925;19;20018;-71
2023/11/10 00:05:14;;;;;;;5.32;3.10;;;9.10;87.10;;;;;;9166819;19;20022;-72
2023/11/10 00:08:22;;;;;;;5.57;2.50;;;9.00;87.00;;;;;;9170389;19;20014;-71
2023/11/10 00:11:27;;;;;;;3.47;2.30;;;9.00;87.10;;;;;;9169236;19;20051;-73
2023/11/10 00:14:35;;;;;;;6.88;3.63;;;9.00;87.10;;;;;;9167074;19;20360;-72
2023/11/10 00:17:47;;;;;;;4.25;2.30;;;9.10;87.10;;;;;;9168586;19;20022;-73
2023/11/10 00:20:54;;;;;;;6.72;2.47;;;9.10;87.10;;;;;;9168881;19;20014;-71
2023/11/10 00:23:59;;;;;;;4.28;2.40;;;9.00;87.00;;;;;;9167828;19;20015;-72
2023/11/10 00:27:07;;;;;;;5.97;2.55;;;9.00;87.10;;;;;;9169064;19;20022;-72
2023/11/10 00:30:14;;;;;;;7.97;2.97;;;9.00;87.20;;;;;;9167925;19;20472;-73
2023/11/10 00:33:24;;;;;;;4.50;2.28;;;9.00;87.10;;;;;;9168292;19;20029;-71
2023/11/10 00:36:30;;;;;;;4.97;2.30;;;9.00;87.00;;;;;;9169072;19;20791;-71
2023/11/10 00:39:38;;;;;;;4.82;2.00;;;9.00;87.00;;;;;;9165435;19;20029;-71
2023/11/10 00:42:43;;;;;;;4.03;2.17;;;9.00;87.00;;;;;;9164272;19;20486;-72
2023/11/10 00:45:50;;;;;;;5.35;2.13;;;9.00;87.00;;;;;;9168617;19;20375;-71
2023/11/10 00:48:58;;;;;;;5.03;2.60;;;9.00;87.10;;;;;;9162992;19;20116;-71
2023/11/10 00:52:07;;;;;;;4.63;2.50;;;9.00;87.10;;;;;;9163723;19;20010;-72
2023/11/10 00:55:13;;;;;;;2.63;2.17;;;8.90;87.00;;;;;;9164000;19;20010;-72
2023/11/10 00:58:21;;;;;;;4.80;2.38;;;8.90;87.00;;;;;;9162535;19;20139;-71
2023/11/10 01:01:26;;;;;;;6.95;2.45;;;8.90;87.10;;;;;;9162657;19;20014;-71
2023/11/10 01:04:36;;;;;;;5.25;2.42;;;8.90;87.00;;;;;;9165635;19;20744;-70
2023/11/10 01:07:42;;;;;;;4.47;2.30;;;8.90;87.00;;;;;;9167602;19;20030;-70
2023/11/10 01:10:49;;;;;;;6.38;2.70;;;8.90;87.00;;;;;;9165963;19;20015;-72
2023/11/10 01:13:55;;;;;;;5.20;2.22;;;8.90;87.00;;;;;;9163278;19;20116;-72
2023/11/10 01:17:02;;;;;;;3.95;1.90;;;8.90;87.00;;;;;;9165751;19;20023;-72
2023/11/10 01:20:13;;;;;;;7.68;2.45;;;8.90;87.00;;;;;;9167736;19;20114;-72
2023/11/10 01:23:20;;;;;;;3.47;2.25;;;8.90;87.00;;;;;;9166090;19;20029;-72
2023/11/10 01:26:27;;;;;;;9.50;2.45;;;8.90;87.10;;;;;;9164750;19;20007;-71
2023/11/10 01:29:35;;;;;;;4.95;1.95;;;8.90;87.10;;;;;;9166174;19;20018;-71
2023/11/10 01:32:41;;;;;;;6.05;2.25;;;8.90;87.10;;;;;;9166532;19;20010;-74
2023/11/10 01:35:52;;;;;;;3.83;2.03;;;8.90;87.10;;;;;;9166023;19;20021;-72
2023/11/10 01:38:57;;;;;;;11.95;2.50;;;8.80;87.00;;;;;;9166375;19;20035;-73
2023/11/10 01:42:08;;;;;;;6.28;1.80;;;8.80;87.10;;;;;;9160767;19;20017;-74
2023/11/10 01:45:15;;;;;;;7.28;2.22;;;8.80;87.00;;;;;;9165772;19;20085;-70
2023/11/10 01:48:23;;;;;;;6.03;2.50;;;8.80;87.10;;;;;;9166637;19;20053;-70
2023/11/10 01:51:31;;;;;;;4.57;2.20;;;8.80;87.20;;;;;;9165087;19;20016;-72
2023/11/10 01:54:39;;;;;;;7.65;2.00;;;8.80;87.30;;;;;;9166234;19;20014;-71
2023/11/10 01:57:46;;;;;;;4.28;2.17;;;8.90;87.50;;;;;;9163271;19;20468;-69
2023/11/10 02:00:54;;;;;;;7.70;1.75;;;8.80;87.40;;;;;;9164024;19;20487;-71
2023/11/10 02:04:00;;;;;;;4.10;1.60;;;8.60;88.30;;;;;;9162931;19;20029;-73
2023/11/10 02:07:10;;;;;;;8.68;2.00;;;8.80;87.10;;;;;;9163770;19;20475;-70
2023/11/10 02:10:16;;;;;;;5.88;1.80;;;8.80;87.10;;;;;;9163764;19;20031;-69
2023/11/10 02:13:23;;;;;;;8.18;1.60;;;8.80;87.10;;;;;;9161849;19;20023;-72
2023/11/10 02:16:29;;;;;;;9.35;1.90;;;8.80;87.10;;;;;;9163022;19;20432;-71
2023/11/10 02:19:37;;;;;;;5.43;1.50;;;8.80;87.10;;;;;;9164722;19;20029;-71
2023/11/10 02:22:55;;;;;;;10.18;1.70;;;8.80;87.10;;;;;;9162032;19;20017;-72
2023/11/10 02:26:06;;;;;;;4.15;1.85;;;8.90;87.20;;;;;;9165072;19;20015;-71
2023/11/10 02:29:11;;;;;;;6.93;1.50;;;8.90;87.20;;;;;;9164138;19;20014;-72
2023/11/10 02:32:19;;;;;;;4.63;1.52;;;8.90;87.10;;;;;;9164219;19;20464;-74
2023/11/10 02:35:24;;;;;;;5.80;1.17;;;8.90;87.10;;;;;;9162458;19;20025;-71
2023/11/10 02:38:32;;;;;;;6.72;1.60;;;8.80;87.10;;;;;;9164591;19;20007;-71
2023/11/10 02:41:40;;;;;;;2.47;1.00;;;8.90;87.10;;;;;;9158013;19;20014;-72
2023/11/10 02:44:47;;;;;;;1.70;1.27;;;8.90;87.10;;;;;;9162272;19;20499;-73
2023/11/10 02:47:53;;;;;;;8.00;1.40;;;8.90;87.10;;;;;;9162821;19;20026;-71
2023/11/10 02:51:01;;;;;;;4.43;1.50;;;8.90;87.20;;;;;;9162553;19;20066;-72
2023/11/10 02:54:07;;;;;;;1.85;0.90;;;8.90;87.10;;;;;;9161269;19;20030;-72
2023/11/10 02:57:18;;;;;;;5.13;1.70;;;8.90;87.10;;;;;;9166015;19;20721;-71
2023/11/10 03:00:25;;;;;;;5.22;1.58;;;9.00;87.10;;;;;;9173757;19;20486;-72
2023/11/10 03:03:32;;;;;;;3.55;1.40;;;8.90;87.10;;;;;;9169132;19;20475;-71
2023/11/10 03:06:38;;;;;;;5.00;1.52;;;9.00;87.10;;;;;;9172622;19;20014;-72
2023/11/10 03:09:45;;;;;;;2.88;1.25;;;9.00;87.10;;;;;;9171249;19;20024;-71
2023/11/10 03:12:53;;;;;;;2.40;1.00;;;9.00;87.10;;;;;;9170385;19;20468;-73
2023/11/10 03:16:00;;;;;;;6.90;1.58;;;9.00;87.10;;;;;;9170573;19;20025;-72
2023/11/10 03:19:06;;;;;;;2.03;1.15;;;9.00;87.10;;;;;;9170493;19;20040;-73
2023/11/10 03:22:15;;;;;;;6.70;1.63;;;9.00;87.10;;;;;;9172424;19;20015;-72
2023/11/10 03:25:23;;;;;;;5.63;1.38;;;9.00;87.10;;;;;;9172058;19;20026;-73
2023/11/10 03:28:33;;;;;;;3.20;1.10;;;9.00;87.30;;;;;;9171777;19;20015;-72
2023/11/10 03:31:38;;;;;;;4.43;1.60;;;9.00;87.20;;;;;;9176335;19;20102;-73
2023/11/10 03:34:46;;;;;;;6.97;1.58;;;9.00;87.10;;;;;;9173992;19;20026;-72
2023/11/10 03:37:52;;;;;;;5.05;1.73;;;9.00;87.20;;;;;;9171318;19;20481;-74
2023/11/10 03:41:00;;;;;;;4.50;1.75;;;9.00;87.10;;;;;;9167376;19;20011;-73
2023/11/10 03:44:08;;;;;;;7.63;1.50;;;9.00;87.10;;;;;;9168534;19;20021;-74
2023/11/10 03:47:15;;;;;;;4.25;1.80;;;9.00;87.00;;;;;;9171448;19;20029;-73
2023/11/10 03:50:21;;;;;;;3.97;2.22;;;9.00;87.00;;;;;;9170293;19;20018;-71
2023/11/10 03:53:28;;;;;;;8.68;1.60;;;9.00;87.10;;;;;;9170291;19;20019;-72
2023/11/10 03:56:36;;;;;;;8.32;1.83;;;9.00;87.00;;;;;;9169914;19;20431;-72
2023/11/10 03:59:45;;;;;;;12.77;2.50;;;9.00;87.00;;;;;;9167231;19;20145;-71
2023/11/10 04:02:51;;;;;;;4.30;1.27;;;9.00;87.00;;;;;;9169541;19;20014;-72
2023/11/10 04:05:58;;;;;;;2.35;1.50;;;9.00;87.00;;;;;;9169057;19;20356;-73
2023/11/10 04:09:04;;;;;;;4.88;1.95;;;8.90;87.10;;;;;;9169566;19;20015;-72
2023/11/10 04:12:11;;;;;;;5.07;1.60;;;8.90;87.00;;;;;;9169183;19;20017;-70
2023/11/10 04:15:19;;;;;;;9.90;2.22;;;8.90;87.00;;;;;;9169658;19;20015;-73
2023/11/10 04:18:28;;;;;;;4.43;2.10;;;9.00;87.10;;;;;;9168056;19;20412;-71
2023/11/10 04:21:34;;;;;;;7.35;2.15;;;8.90;87.00;;;;;;9170512;19;20023;-72
2023/11/10 04:24:42;;;;;;;4.32;1.70;;;8.90;87.20;;;;;;9167899;19;20022;-75
2023/11/10 04:27:47;;;;;;;6.35;2.25;;;10.10;90.10;;;;;;9169088;19;20021;-72
2023/11/10 04:30:59;;;;;;;2.50;1.75;;;9.00;87.20;;;;;;9169314;19;20019;-73
2023/11/10 04:34:05;;;;;;;10.07;2.35;;;9.00;88.00;;;;;;9166864;19;20014;-71
2023/11/10 04:37:12;;;;;;;6.60;1.65;;;8.90;87.20;;;;;;9169172;19;20066;-72
2023/11/10 04:40:18;;;;;;;7.95;2.05;;;8.90;87.20;;;;;;9164828;19;20033;-71
2023/11/10 04:43:25;;;;;;;10.15;2.03;;;8.90;87.20;;;;;;9165788;19;20495;-73
2023/11/10 04:46:33;;;;;;;5.28;1.90;;;8.90;87.20;;;;;;9168947;19;20010;-71
2023/11/10 04:49:41;;;;;;;5.80;2.03;;;8.90;87.20;;;;;;9168547;19;20696;-71
2023/11/10 04:52:47;;;;;;;3.90;1.92;;;8.90;87.20;;;;;;9168839;19;20013;-72
2023/11/10 04:55:55;;;;;;;7.13;1.52;;;9.00;87.20;;;;;;9165973;19;20419;-71
2023/11/10 04:59:02;;;;;;;6.35;2.25;;;8.90;87.10;;;;;;9167386;19;20385;-70
2023/11/10 05:02:12;;;;;;;4.60;1.48;;;9.00;87.10;;;;;;9167555;19;20025;-73
2023/11/10 05:05:18;;;;;;;5.93;2.20;;;9.00;87.10;;;;;;9165282;19;20102;-72
2023/11/10 05:08:25;;;;;;;5.22;1.70;;;9.00;87.10;;;;;;9167473;19;20029;-72
2023/11/10 05:11:30;;;;;;;4.40;1.80;;;9.00;87.20;;;;;;9167302;19;20767;-71
2023/11/10 05:14:39;;;;;;;3.47;1.67;;;9.00;87.70;;;;;;9165107;19;20434;-72
2023/11/10 05:17:47;;;;;;;3.88;1.70;;;9.00;87.20;;;;;;9166757;19;20011;-72
2023/11/10 05:20:55;;;;;;;3.95;1.98;;;9.00;87.20;;;;;;9165461;19;20015;-72
2023/11/10 05:24:00;;;;;;;6.15;1.83;;;9.00;87.80;;;;;;9165989;19;20019;-71
2023/11/10 05:27:08;;;;;;;4.10;1.35;;;9.00;87.20;;;;;;9167018;19;20025;-71
2023/11/10 05:30:14;;;;;;;7.43;2.65;;;9.00;87.20;;;;;;9165911;19;20032;-71
2023/11/10 05:33:24;;;;;;;2.70;1.60;;;9.00;87.30;;;;;;9166665;19;20022;-72
2023/11/10 05:36:30;;;;;;;3.65;1.63;;;9.00;87.10;;;;;;9164058;19;20179;-70
2023/11/10 05:39:37;;;;;;;4.68;1.83;;;9.00;87.10;;;;;;9161495;19;20372;-72
2023/11/10 05:42:43;;;;;;;2.05;1.30;;;9.00;87.10;;;;;;9166058;19;20006;-72
2023/11/10 05:45:50;;;;;;;6.15;1.60;;;9.00;87.20;;;;;;9164305;19;20026;-72
2023/11/10 05:48:59;;;;;;;3.03;1.20;;;9.00;87.10;;;;;;9166008;19;20019;-72
2023/11/10 05:52:07;;;;;;;5.05;1.52;;;9.00;87.20;;;;;;9163750;19;20029;-71
2023/11/10 05:55:12;;;;;;;3.70;1.60;;;9.00;87.10;;;;;;9166022;19;20054;-72
2023/11/10 05:58:20;;;;;;;4.47;1.65;;;9.00;87.80;;;;;;9165585;19;20010;-72
2023/11/10 06:01:26;;;;;;;2.63;1.15;;;9.00;87.80;;;;;;9165034;19;20060;-70
2023/11/10 06:04:38;;;;;;;2.20;1.05;;;9.00;87.10;;;;;;9164897;19;20026;-71
2023/11/10 06:07:46;;;;;;;7.18;1.35;;;9.00;87.10;;;;;;9165254;19;20359;-73
2023/11/10 06:10:56;;;;;;;3.33;1.50;;;9.10;87.20;;;;;;9159683;19;20725;-72
2023/11/10 06:14:02;;;;;;;2.72;1.67;;;9.00;87.10;;;;;;9161109;19;20578;-71
2023/11/10 06:17:10;;;;;;;9.35;1.73;;;9.10;87.20;;;;;;9159810;19;20018;-72
2023/11/10 06:20:20;;;;;;;5.15;1.30;;;9.10;87.60;;;;;;9158784;19;20022;-71
2023/11/10 06:23:28;;;;;;;7.40;1.35;;;9.10;87.30;;;;;;9160417;19;20023;-73
2023/11/10 06:26:33;;;;;;;2.90;1.20;;;9.10;87.30;;;;;;9159140;19;20018;-74
2023/11/10 06:29:40;;;;;;;3.08;1.80;;;9.10;87.10;;;;;;9161198;19;20018;-74
2023/11/10 06:32:46;;;;;;;7.30;1.30;;;9.00;87.00;;;;;;9171806;19;20065;-72
2023/11/10 06:35:56;;;;;;;7.75;1.48;;;9.10;87.20;;;;;;9169796;19;20014;-72
2023/11/10 06:39:02;;;;;;;5.13;1.83;;;9.00;87.10;;;;;;9171315;19;20052;-71
2023/11/10 06:42:10;;;;;;;2.90;1.27;;;9.10;87.10;;;;;;9165884;19;20026;-72
2023/11/10 06:45:16;;;;;;;4.43;1.40;;;9.10;87.10;;;;;;9170154;19;20019;-72
2023/11/10 06:48:23;;;;;;;4.88;1.50;;;9.10;87.00;;;;;;9166391;19;20372;-72
2023/11/10 06:51:32;;;;;;;5.57;1.38;;;9.10;87.00;;;;;;9171388;19;20023;-72
2023/11/10 06:54:40;;;;;;;8.13;1.65;;;9.10;87.10;;;;;;9171258;19;20018;-72
2023/11/10 06:57:46;;;;;;;4.32;1.38;;;9.10;87.10;;;;;;9169030;19;20376;-72
2023/11/10 07:00:54;;;;;;;4.72;1.55;;;9.10;87.10;;;;;;9170470;19;20407;-73
2023/11/10 07:04:00;;;;;;;4.00;1.45;;;9.20;87.20;;;;;;9170776;19;20015;-73
2023/11/10 07:07:11;;;;;;;1.92;1.27;;;9.10;88.40;;;;;;9167081;19;20483;-71
2023/11/10 07:10:17;;;;;;;5.65;1.50;;;9.10;87.00;;;;;;9168944;19;20114;-73
2023/11/10 07:13:26;;;;;;;2.90;1.30;;;9.10;87.00;;;;;;9170257;19;20022;-71
2023/11/10 07:16:31;;;;;;;3.58;1.20;;;9.10;87.00;;;;;;9169654;19;20027;-71
2023/11/10 07:19:38;;;;;;;5.47;1.73;;;9.10;87.00;;;;;;9166244;19;20022;-73
2023/11/10 07:22:46;;;;;;;3.40;1.35;;;9.10;87.00;;;;;;9170675;19;20063;-72
2023/11/10 07:25:54;;;;;;;5.10;1.70;;;9.10;87.00;;;;;;9166197;19;20019;-72
2023/11/10 07:29:02;;;;;;;5.95;1.42;;;9.10;86.90;;;;;;9169164;19;20021;-73
2023/11/10 07:32:09;;;;;;;8.60;1.50;;;9.10;86.90;;;;;;9169293;19;20476;-74
2023/11/10 07:35:15;;;;;;;11.55;1.65;;;9.10;86.90;;;;;;9170010;19;20022;-72
2023/11/10 07:38:25;;;;;;;9.77;1.60;;;9.10;87.00;;;;;;9169017;19;20018;-72
2023/11/10 07:41:30;;;;;;;5.78;1.27;;;9.10;86.90;;;;;;9164062;19;20018;-71
2023/11/10 07:44:38;;;;;;;5.38;1.60;;;9.10;86.90;;;;;;9167461;19;20011;-71
2023/11/10 07:47:44;;;;;;;4.13;1.60;;;9.10;87.00;;;;;;9167213;19;20025;-71
2023/11/10 07:50:51;;;;;;;4.55;1.23;;;9.10;87.00;;;;;;9168394;19;20014;-73
2023/11/10 07:53:59;;;;;;;6.25;1.45;;;9.10;86.90;;;;;;9168101;19;20075;-72
2023/11/10 07:57:07;;;;;;;4.43;1.42;;;9.20;87.10;;;;;;9165285;19;20111;-71
2023/11/10 08:00:16;;;;;;;14.18;1.40;;;9.20;87.00;;;;;;9164150;19;20024;-73
2023/11/10 08:03:25;;;;;;;2.03;1.20;;;9.20;87.00;;;;;;9167484;19;20023;-70
2023/11/10 08:06:33;;;;;;;4.00;1.17;;;9.20;87.00;;;;;;9163937;19;20259;-72
2023/11/10 08:09:43;;;;;;;4.68;1.27;;;9.20;87.00;;;;;;9168184;19;20025;-72
2023/11/10 08:12:49;;;;;;;5.88;1.55;;;9.20;87.00;;;;;;9168121;19;20010;-72
2023/11/10 08:15:56;;;;;;;5.18;1.58;;;9.20;87.40;;;;;;9164701;19;20268;-72
2023/11/10 08:19:03;;;;;;;8.73;1.40;;;9.20;87.00;;;;;;9164219;19;20026;-71
2023/11/10 08:22:10;;;;;;;6.10;1.60;;;9.30;87.00;;;;;;9165492;19;20026;-74
2023/11/10 08:25:18;;;;;;;6.18;1.60;;;9.30;86.90;;;;;;9167869;19;20298;-72
2023/11/10 08:28:26;;;;;;;2.78;1.25;;;9.30;86.90;;;;;;9163713;19;20022;-71
2023/11/10 08:31:31;;;;;;;4.65;1.58;;;9.30;86.80;;;;;;9165796;19;20007;-73
2023/11/10 08:34:38;;;;;;;4.32;0.88;;;8.80;86.60;;;;;;9164494;19;20018;-73
2023/11/10 08:37:46;;;;;;;5.45;1.40;;;9.30;87.10;;;;;;9165577;19;20983;-73
2023/11/10 08:40:56;;;;;;;2.25;1.30;;;9.30;86.80;;;;;;9159035;19;20022;-72
2023/11/10 08:44:03;;;;;;;4.45;1.40;;;9.30;86.80;;;;;;9164116;19;20048;-72
2023/11/10 08:47:12;;;;;;;3.85;1.38;;;9.40;86.80;;;;;;9164810;19;20014;-73
2023/11/10 08:50:17;;;;;;;4.10;1.42;;;9.30;86.70;;;;;;9165230;19;20022;-71
2023/11/10 08:53:25;;;;;;;7.68;1.38;;;9.40;86.60;;;;;;9162001;19;20018;-72
2023/11/10 08:56:33;;;;;;;2.97;1.38;;;9.40;86.70;;;;;;9166081;19;20018;-74
2023/11/10 08:59:41;;;;;;;4.65;1.40;;;9.40;86.60;;;;;;9164772;19;20006;-73
2023/11/10 09:02:49;;;;;;;4.68;1.33;;;9.40;86.70;;;;;;9161685;19;20022;-73
2023/11/10 09:05:57;;;;;;;6.20;1.60;;;9.40;86.60;;;;;;9165266;19;20018;-72
2023/11/10 09:09:02;;;;;;;2.92;1.25;;;9.40;86.50;;;;;;9164035;19;20018;-73
2023/11/10 09:12:12;;;;;;;5.15;1.58;;;9.40;86.50;;;;;;9166157;19;20014;-71
2023/11/10 09:15:18;;;;;;;9.77;1.67;;;9.40;86.60;;;;;;9164992;19;20078;-73
2023/11/10 09:18:27;;;;;;;6.10;1.20;;;9.50;86.60;;;;;;9163172;19;20054;-74
2023/11/10 09:21:33;;;;;;;6.35;1.65;;;9.50;86.60;;;;;;9165035;19;20051;-72
2023/11/10 09:24:42;;;;;;;3.50;1.40;;;9.50;86.50;;;;;;9162163;19;20445;-72
2023/11/10 09:27:50;;;;;;;4.90;1.35;;;9.50;86.50;;;;;;9162595;19;20078;-72
2023/11/10 09:30:58;;;;;;;5.07;1.38;;;9.60;86.60;;;;;;9164111;19;20018;-72
2023/11/10 09:34:04;;;;;;;4.18;1.20;;;9.60;86.50;;;;;;9164658;19;20368;-73
2023/11/10 09:37:12;;;;;;;5.35;1.05;;;9.60;86.50;;;;;;9163190;19;20026;-72
2023/11/10 09:40:19;;;;;;;6.43;1.42;;;9.60;86.50;;;;;;9157813;19;21350;-72
2023/11/10 09:43:33;;;;;;;6.03;1.15;;;9.60;86.50;;;;;;9163198;19;20014;-73
2023/11/10 09:46:39;;;;;;;2.85;1.35;;;9.70;86.40;;;;;;9161680;19;20110;-70
2023/11/10 09:49:47;;;;;;;5.35;1.33;;;9.70;86.40;;;;;;9163128;19;20014;-71
2023/11/10 09:52:54;;;;;;;5.05;2.28;;;9.70;86.40;;;;;;9163751;19;20594;-69
2023/11/10 09:56:02;;;;;;;8.75;1.52;;;9.70;86.30;;;;;;9163135;19;20015;-71
2023/11/10 09:59:11;;;;;;;5.72;1.40;;;9.70;86.30;;;;;;9164011;19;20017;-71
2023/11/10 10:02:19;;;;;;;5.60;1.70;;;9.70;86.30;;;;;;9164434;19;20395;-72
2023/11/10 10:05:24;;;;;;;10.18;1.38;;;9.80;86.30;;;;;;9163615;19;20258;-71
2023/11/10 10:08:31;;;;;;;9.07;1.73;;;9.80;86.30;;;;;;9159063;19;20070;-71
2023/11/10 10:11:37;;;;;;;3.42;1.50;;;9.80;86.40;;;;;;9161458;19;20018;-70
2023/11/10 10:14:56;;;;;;;4.72;1.48;;;9.90;86.50;;;;;;9163184;19;20045;-71
2023/11/10 10:18:09;;;;;;;7.78;2.28;;;9.90;86.40;;;;;;9159486;19;20015;-70
2023/11/10 10:21:16;;;;;;;7.88;2.58;;;9.90;86.30;;;;;;9161179;19;20014;-70
2023/11/10 10:24:21;;;;;;;7.43;2.33;;;9.90;86.30;;;;;;9162591;19;20015;-71
2023/11/10 10:27:29;;;;;;;6.18;1.67;;;10.00;86.20;;;;;;9162034;19;20046;-71
2023/11/10 10:30:38;;;;;;;11.52;1.58;;;10.00;86.10;;;;;;9162106;19;20015;-71
2023/11/10 10:33:45;;;;;;;5.88;1.40;;;10.00;86.00;;;;;;9160049;19;20007;-71
2023/11/10 10:36:51;;;;;;;8.07;1.58;;;10.00;86.00;;;;;;9162918;19;20701;-70
2023/11/10 10:40:02;;;;;;;7.22;1.63;;;10.00;85.90;;;;;;9158629;19;20030;-71
2023/11/10 10:43:09;;;;;;;5.55;1.40;;;10.00;85.80;;;;;;9162496;19;20349;-70
2023/11/10 10:46:20;;;;;;;6.60;2.10;;;10.00;85.70;;;;;;9162120;19;20018;-71
2023/11/10 10:49:26;;;;;;;7.60;1.63;;;10.00;85.80;;;;;;9160312;19;20023;-71
2023/11/10 10:52:36;;;;;;;3.08;1.30;;;10.00;85.80;;;;;;9161536;19;20767;-71
2023/11/10 10:55:42;;;;;;;11.60;2.35;;;10.00;85.90;;;;;;9162594;19;20505;-71
2023/11/10 10:58:49;;;;;;;8.23;1.70;;;10.00;85.90;;;;;;9161458;19;20023;-70
2023/11/10 11:01:59;;;;;;;8.70;1.83;;;10.00;85.80;;;;;;9159999;19;20022;-72
2023/11/10 11:05:21;;;;;;;4.15;1.67;;;10.00;85.80;;;;;;9161627;19;20019;-71
2023/11/10 11:08:46;;;;;;;6.93;1.55;;;10.00;85.80;;;;;;9160605;19;20078;-71
2023/11/10 11:12:21;;;;;;;6.68;1.70;;;10.00;85.80;;;;;;9161021;19;20771;-71
2023/11/10 11:15:34;;;;;;;4.90;1.98;;;10.00;85.80;;;;;;9158316;19;20018;-71
2023/11/10 11:19:03;;;;;;;4.28;1.27;;;10.00;85.80;;;;;;9166914;19;20874;-72
2023/11/10 11:22:11;;;;;;;6.40;1.60;;;10.00;85.90;;;;;;9170060;19;20783;-70
2023/11/10 11:25:21;;;;;;;8.00;1.98;;;10.00;86.00;;;;;;9168688;19;20496;-69
2023/11/10 11:28:28;;;;;;;6.95;1.65;;;10.00;85.80;;;;;;9165270;19;20049;-70
2023/11/10 11:31:46;;;;;;;10.23;1.50;;;10.00;85.80;;;;;;9165067;19;20892;-70
2023/11/10 11:34:59;;;;;;;8.02;1.80;;;10.00;85.80;;;;;;9167493;19;20481;-70
2023/11/10 11:38:06;;;;;;;9.05;1.70;;;10.10;85.80;;;;;;9164308;19;20025;-69
2023/11/10 11:41:12;;;;;;;6.40;1.50;;;10.10;85.80;;;;;;9161894;19;20018;-70
2023/11/10 11:44:34;;;;;;;9.45;1.98;;;10.00;85.80;;;;;;9165236;19;20022;-70
2023/11/10 11:47:39;;;;;;;7.28;1.35;;;10.00;85.90;;;;;;9154320;19;20041;-70
2023/11/10 11:50:52;;;;;;;7.03;1.35;;;10.10;86.00;;;;;;9155284;19;20025;-70
2023/11/10 11:53:57;;;;;;;7.10;1.20;;;10.00;85.90;;;;;;9166521;19;20494;-70
2023/11/10 11:57:05;;;;;;;12.05;2.60;;;10.10;85.90;;;;;;9166338;19;20018;-69
2023/11/10 12:00:15;;;;;;;7.53;1.42;;;10.00;85.90;;;;;;9165733;19;20011;-69
2023/11/10 12:03:23;;;;;;;5.32;1.10;;;10.00;86.00;;;;;;9166039;19;20042;-69
2023/11/10 12:06:31;;;;;;;6.70;1.30;;;10.00;86.10;;;;;;9165602;19;20014;-70
2023/11/10 12:09:38;;;;;;;3.90;1.13;;;10.00;86.20;;;;;;9160556;19;20014;-69
2023/11/10 12:12:45;;;;;;;6.60;1.65;;;10.10;86.30;;;;;;9163792;19;20011;-70
2023/11/10 12:15:53;;;;;;;6.47;1.63;;;10.10;86.40;;;;;;9165216;19;20018;-71
2023/11/10 12:18:58;;;;;;;5.63;1.55;;;10.10;86.40;;;;;;9163235;19;20471;-69
2023/11/10 12:22:08;;;;;;;6.95;1.90;;;10.10;86.40;;;;;;9162494;19;20017;-70
2023/11/10 12:25:14;;;;;;;5.45;1.42;;;10.20;86.50;;;;;;9162737;19;20026;-70
2023/11/10 12:28:21;;;;;;;2.63;1.38;;;10.20;86.40;;;;;;9163257;19;20014;-70
2023/11/10 12:31:27;;;;;;;8.68;1.30;;;10.20;86.40;;;;;;9163894;19;20025;-71
2023/11/10 12:34:37;;;;;;;4.88;1.25;;;10.20;86.40;;;;;;9165189;19;20018;-70
2023/11/10 12:37:46;;;;;;;5.35;1.50;;;10.20;86.30;;;;;;9164727;19;20029;-70
2023/11/10 12:40:56;;;;;;;5.57;1.15;;;10.20;86.40;;;;;;9160435;19;20018;-70
2023/11/10 12:44:02;;;;;;;2.60;1.20;;;10.30;86.40;;;;;;9161776;19;20044;-71
2023/11/10 12:47:09;;;;;;;9.05;1.75;;;10.30;86.40;;;;;;9165026;19;20011;-72
2023/11/10 12:50:17;;;;;;;7.63;1.45;;;10.30;86.30;;;;;;9162455;19;20452;-71
2023/11/10 12:53:27;;;;;;;4.78;1.05;;;10.30;86.30;;;;;;9165541;19;20018;-70
2023/11/10 12:56:33;;;;;;;3.72;1.00;;;10.20;86.70;;;;;;9165754;19;20010;-70
2023/11/10 12:59:41;;;;;;;8.18;1.33;;;10.20;86.30;;;;;;9165397;19;20029;-69
2023/11/10 13:02:48;;;;;;;4.05;1.05;;;10.20;86.30;;;;;;9164951;19;20026;-70
2023/11/10 13:05:56;;;;;;;1.77;0.90;;;10.20;86.30;;;;;;9165759;19;20527;-71
2023/11/10 13:09:05;;;;;;;7.63;2.28;;;10.20;86.20;;;;;;9164388;19;20023;-72
2023/11/10 13:12:13;;;;;;;4.65;0.90;;;10.20;86.20;;;;;;9166029;19;20014;-70
2023/11/10 13:15:20;;;;;;;5.05;1.25;;;10.10;86.80;;;;;;9164883;19;20053;-71
2023/11/10 13:18:28;;;;;;;4.80;1.38;;;10.10;86.20;;;;;;9164147;19;20101;-71
2023/11/10 13:21:33;;;;;;;4.18;0.80;;;10.10;86.30;;;;;;9161998;19;20034;-71
2023/11/10 13:24:46;;;;;;;2.08;0.90;;;10.10;86.90;;;;;;9164645;19;20491;-71
2023/11/10 13:27:51;;;;;;;7.10;1.05;;;10.10;86.40;;;;;;9163790;19;20734;-71
2023/11/10 13:31:07;;;;;;;3.08;1.02;;;10.00;86.30;;;;;;9162364;19;20018;-71
2023/11/10 13:34:31;;;;;;;5.68;1.88;;;10.00;86.40;;;;;;9164503;19;20018;-71
2023/11/10 13:37:40;;;;;;;3.85;1.23;;;10.00;86.50;;;;;;9165225;19;20022;-72
2023/11/10 13:40:48;;;;;;;4.53;1.60;;;10.00;86.50;;;;;;9158311;19;20467;-72
2023/11/10 13:43:55;;;;;;;7.10;1.20;;;10.00;86.50;;;;;;9163189;19;20041;-70
2023/11/10 13:47:00;;;;;;;9.20;1.38;;;9.90;86.40;;;;;;9162925;19;20014;-72
2023/11/10 13:50:09;;;;;;;6.72;1.10;;;9.90;86.50;;;;;;9162802;19;20027;-72
2023/11/10 13:53:15;;;;;;;10.23;2.15;;;9.90;86.50;;;;;;9161176;19;20373;-71
2023/11/10 13:56:25;;;;;;;8.30;1.30;;;9.90;86.50;;;;;;9161895;19;20014;-71
2023/11/10 13:59:31;;;;;;;6.18;1.73;;;9.90;86.50;;;;;;9160772;19;20042;-71
2023/11/10 14:02:38;;;;;;;2.20;1.35;;;9.90;86.60;;;;;;9162142;19;20129;-72
2023/11/10 14:05:44;;;;;;;7.68;1.40;;;9.90;86.70;;;;;;9161030;19;20082;-71
2023/11/10 14:08:51;;;;;;;4.15;1.40;;;9.90;86.70;;;;;;9163045;19;20018;-71
2023/11/10 14:11:59;;;;;;;4.40;1.67;;;9.90;86.60;;;;;;9163184;19;20459;-71
2023/11/10 14:15:07;;;;;;;9.85;1.48;;;9.80;86.50;;;;;;9162031;19;20018;-71
2023/11/10 14:18:13;;;;;;;2.58;1.10;;;9.80;86.60;;;;;;9159210;19;20022;-72
2023/11/10 14:21:22;;;;;;;5.72;1.42;;;9.80;86.60;;;;;;9163636;19;20025;-71
2023/11/10 14:24:28;;;;;;;6.40;1.42;;;9.80;86.60;;;;;;9161271;19;20041;-71
2023/11/10 14:27:38;;;;;;;9.32;1.88;;;9.80;86.60;;;;;;9162430;19;20018;-71
2023/11/10 14:30:44;;;;;;;5.40;1.50;;;9.80;86.70;;;;;;9160145;19;20026;-71
2023/11/10 14:33:52;;;;;;;5.93;1.38;;;9.80;86.70;;;;;;9160867;19;20029;-70
2023/11/10 14:36:58;;;;;;;4.97;2.28;;;9.80;86.70;;;;;;9157551;19;20067;-71
2023/11/10 14:40:16;;;;;;;2.65;1.13;;;9.80;86.80;;;;;;9149433;19;20014;-70
2023/11/10 14:43:24;;;;;;;2.38;1.52;;;9.80;86.80;;;;;;9160318;19;20018;-71
2023/11/10 14:46:36;;;;;;;8.27;1.35;;;9.80;86.70;;;;;;9159090;19;20018;-71
2023/11/10 14:49:44;;;;;;;3.80;1.20;;;9.80;86.80;;;;;;9158782;19;20006;-70
2023/11/10 14:52:53;;;;;;;3.47;1.05;;;9.80;86.70;;;;;;9169166;19;20369;-71
2023/11/10 14:56:00;;;;;;;5.22;1.50;;;9.70;86.70;;;;;;9171728;19;20010;-71
2023/11/10 14:59:10;;;;;;;5.40;1.35;;;9.80;86.90;;;;;;9170527;19;20022;-70
2023/11/10 15:02:16;;;;;;;6.47;1.55;;;9.70;86.80;;;;;;9166836;19;20493;-69
2023/11/10 15:05:24;;;;;;;3.50;1.52;;;9.70;86.80;;;;;;9163349;19;20028;-70
2023/11/10 15:08:29;;;;;;;4.53;1.27;;;9.70;86.80;;;;;;9164973;19;20044;-71
2023/11/10 15:11:37;;;;;;;4.80;1.00;;;9.70;86.90;;;;;;9158582;19;20555;-71
2023/11/10 15:14:45;;;;;;;8.32;1.48;;;9.70;86.90;;;;;;9159770;19;20851;-70
2023/11/10 15:17:53;;;;;;;1.73;0.88;;;9.70;86.90;;;;;;9161414;19;20019;-70
2023/11/10 15:20:58;;;;;;;3.45;1.05;;;9.70;86.90;;;;;;9165084;19;20010;-72
2023/11/10 15:24:07;;;;;;;5.90;1.67;;;9.70;86.90;;;;;;9165886;19;20007;-69
2023/11/10 15:27:12;;;;;;;7.35;2.05;;;9.70;86.90;;;;;;9166328;19;20091;-70
2023/11/10 15:30:24;;;;;;;3.08;1.35;;;9.70;86.90;;;;;;9166285;19;20142;-73
2023/11/10 15:33:34;;;;;;;2.85;1.10;;;9.70;86.90;;;;;;9166459;19;20018;-72
2023/11/10 15:36:50;;;;;;;3.03;1.02;;;9.70;87.50;;;;;;9168729;19;20014;-71
2023/11/10 15:39:59;;;;;;;6.55;1.70;;;9.70;87.00;;;;;;9160938;19;20018;-70
2023/11/10 15:43:08;;;;;;;4.65;1.48;;;9.70;87.00;;;;;;9169043;19;20527;-71
2023/11/10 15:46:16;;;;;;;5.43;1.25;;;9.70;87.00;;;;;;9166219;19;20538;-72
2023/11/10 15:49:23;;;;;;;4.07;1.00;;;9.70;87.00;;;;;;9166500;19;20353;-70
2023/11/10 15:52:29;;;;;;;2.22;1.20;;;9.70;87.00;;;;;;9168121;19;20472;-70
2023/11/10 15:55:36;;;;;;;3.55;1.10;;;9.70;87.00;;;;;;9165094;19;20101;-72
2023/11/10 15:58:42;;;;;;;5.63;1.30;;;9.70;87.10;;;;;;9167788;19;20021;-71
2023/11/10 16:01:52;;;;;;;7.40;1.50;;;9.70;87.00;;;;;;9167911;19;20035;-71
2023/11/10 16:04:58;;;;;;;7.30;1.38;;;9.70;87.00;;;;;;9166233;19;20018;-71
2023/11/10 16:08:07;;;;;;;8.20;2.80;;;9.70;87.00;;;;;;9165959;19;20022;-71
2023/11/10 16:11:12;;;;;;;6.93;2.10;;;9.70;87.10;;;;;;9165812;19;20352;-72
2023/11/10 16:14:20;;;;;;;4.05;1.35;;;9.70;87.20;;;;;;9167359;19;20015;-71
2023/11/10 16:17:28;;;;;;;3.00;1.10;;;9.70;87.20;;;;;;9164641;19;20086;-72
2023/11/10 16:20:35;;;;;;;3.20;1.02;;;9.70;87.10;;;;;;9163233;19;20487;-70
2023/11/10 16:23:41;;;;;;;4.07;1.40;;;9.60;87.10;;;;;;9158509;19;20390;-71
2023/11/10 16:26:49;;;;;;;2.80;1.45;;;9.60;87.10;;;;;;9162554;19;20021;-74
2023/11/10 16:29:55;;;;;;;2.10;1.08;;;9.60;87.10;;;;;;9160391;19;20031;-71